sensor_id;sensor_type;location;lat;lon;timestamp;pressure;altitude;pressure_sealevel;temperature;humidity
11710;BME280;5911;51.036;6.972;2023-06-14T00:02:01;100496.63;;;23.06;43.06
11710;BME280;5911;51.036;6.972;2023-06-14T00:04:30;100492.72;;;23.02;43.41
11710;BME280;5911;51.036;6.972;2023-06-14T00:06:59;100489.59;;;22.98;43.14
11710;BME280;5911;51.036;6.972;2023-06-14T00:09:27;100493.72;;;22.94;43.30
11710;BME280;5911;51.036;6.972;2023-06-14T00:11:55;100492.53;;;22.90;43.48
11710;BME280;5911;51.036;6.972;2023-06-14T00:14:22;100498.31;;;22.87;43.63
11710;BME280;5911;51.036;6.972;2023-06-14T00:16:50;100489.19;;;22.82;43.77
11710;BME280;5911;51.036;6.972;2023-06-14T00:19:19;100500.38;;;22.78;44.02
11710;BME280;5911;51.036;6.972;2023-06-14T00:21:47;100505.31;;;22.75;44.21
11710;BME280;5911;51.036;6.972;2023-06-14T00:24:16;100505.75;;;22.72;43.68
11710;BME280;5911;51.036;6.972;2023-06-14T00:26:44;100500.75;;;22.69;43.70
11710;BME280;5911;51.036;6.972;2023-06-14T00:29:12;100506.56;;;22.66;43.51
11710;BME280;5911;51.036;6.972;2023-06-14T00:31:40;100511.09;;;22.65;43.94
11710;BME280;5911;51.036;6.972;2023-06-14T00:34:07;100518.34;;;22.58;43.97
11710;BME280;5911;51.036;6.972;2023-06-14T00:36:35;100517.72;;;22.56;44.34
11710;BME280;5911;51.036;6.972;2023-06-14T00:39:03;100515.88;;;22.57;44.77
11710;BME280;5911;51.036;6.972;2023-06-14T00:41:32;100521.44;;;22.55;44.78
11710;BME280;5911;51.036;6.972;2023-06-14T00:44:00;100516.28;;;22.54;44.36
11710;BME280;5911;51.036;6.972;2023-06-14T00:46:28;100524.13;;;22.49;44.40
11710;BME280;5911;51.036;6.972;2023-06-14T00:48:56;100525.78;;;22.50;44.54
11710;BME280;5911;51.036;6.972;2023-06-14T00:51:25;100527.25;;;22.45;44.76
11710;BME280;5911;51.036;6.972;2023-06-14T00:53:54;100533.41;;;22.39;45.13
11710;BME280;5911;51.036;6.972;2023-06-14T00:56:22;100527.63;;;22.36;45.36
11710;BME280;5911;51.036;6.972;2023-06-14T00:58:52;100526.78;;;22.35;44.90
11710;BME280;5911;51.036;6.972;2023-06-14T01:01:20;100534.66;;;22.30;45.11
11710;BME280;5911;51.036;6.972;2023-06-14T01:03:48;100537.94;;;22.26;45.16
11710;BME280;5911;51.036;6.972;2023-06-14T01:06:23;100533.59;;;22.31;44.99
11710;BME280;5911;51.036;6.972;2023-06-14T01:09:03;100535.06;;;22.27;44.98
11710;BME280;5911;51.036;6.972;2023-06-14T01:11:38;100528.44;;;22.23;45.42
11710;BME280;5911;51.036;6.972;2023-06-14T01:14:11;100533.38;;;22.20;45.05
11710;BME280;5911;51.036;6.972;2023-06-14T01:16:40;100532.94;;;22.16;45.56
11710;BME280;5911;51.036;6.972;2023-06-14T01:19:11;100537.72;;;22.14;45.54
11710;BME280;5911;51.036;6.972;2023-06-14T01:21:40;100537.09;;;22.12;45.42
11710;BME280;5911;51.036;6.972;2023-06-14T01:24:10;100527.13;;;22.06;46.11
11710;BME280;5911;51.036;6.972;2023-06-14T01:26:39;100532.06;;;22.02;45.29
11710;BME280;5911;51.036;6.972;2023-06-14T01:29:13;100528.31;;;21.97;45.69
11710;BME280;5911;51.036;6.972;2023-06-14T01:31:45;100527.28;;;21.98;45.80
11710;BME280;5911;51.036;6.972;2023-06-14T01:34:13;100521.69;;;21.93;45.70
11710;BME280;5911;51.036;6.972;2023-06-14T01:36:43;100533.22;;;21.87;45.32
11710;BME280;5911;51.036;6.972;2023-06-14T01:39:14;100527.84;;;21.87;45.87
11710;BME280;5911;51.036;6.972;2023-06-14T01:41:42;100536.94;;;21.86;45.41
11710;BME280;5911;51.036;6.972;2023-06-14T01:44:12;100532.38;;;21.80;45.37
11710;BME280;5911;51.036;6.972;2023-06-14T01:46:42;100541.88;;;21.75;45.67
11710;BME280;5911;51.036;6.972;2023-06-14T01:49:11;100531.91;;;21.69;45.71
11710;BME280;5911;51.036;6.972;2023-06-14T01:51:39;100536.88;;;21.72;45.80
11710;BME280;5911;51.036;6.972;2023-06-14T01:54:08;100535.66;;;21.68;45.75
11710;BME280;5911;51.036;6.972;2023-06-14T01:56:39;100540.38;;;21.66;45.66
11710;BME280;5911;51.036;6.972;2023-06-14T01:59:06;100536.88;;;21.66;45.85
11710;BME280;5911;51.036;6.972;2023-06-14T02:01:34;100537.91;;;21.65;46.13
11710;BME280;5911;51.036;6.972;2023-06-14T02:04:03;100535.59;;;21.62;45.78
11710;BME280;5911;51.036;6.972;2023-06-14T02:06:31;100535.16;;;21.58;46.22
11710;BME280;5911;51.036;6.972;2023-06-14T02:09:01;100516.31;;;21.45;45.95
11710;BME280;5911;51.036;6.972;2023-06-14T02:11:30;100530.63;;;21.52;46.57
11710;BME280;5911;51.036;6.972;2023-06-14T02:13:59;100536.38;;;21.49;45.77
11710;BME280;5911;51.036;6.972;2023-06-14T02:16:28;100535.09;;;21.45;46.52
11710;BME280;5911;51.036;6.972;2023-06-14T02:18:57;100530.94;;;21.42;46.51
11710;BME280;5911;51.036;6.972;2023-06-14T02:21:24;100540.44;;;21.38;46.83
11710;BME280;5911;51.036;6.972;2023-06-14T02:23:52;100540.84;;;21.35;46.95
11710;BME280;5911;51.036;6.972;2023-06-14T02:26:20;100542.88;;;21.33;46.97
11710;BME280;5911;51.036;6.972;2023-06-14T02:28:49;100543.28;;;21.30;47.07
11710;BME280;5911;51.036;6.972;2023-06-14T02:31:18;100548.84;;;21.29;46.61
11710;BME280;5911;51.036;6.972;2023-06-14T02:33:48;100552.09;;;21.24;46.94
11710;BME280;5911;51.036;6.972;2023-06-14T02:36:15;100547.97;;;21.22;46.82
11710;BME280;5911;51.036;6.972;2023-06-14T02:38:43;100553.53;;;21.20;46.83
11710;BME280;5911;51.036;6.972;2023-06-14T02:41:11;100553.69;;;21.19;46.64
11710;BME280;5911;51.036;6.972;2023-06-14T02:43:39;100556.38;;;21.19;46.66
11710;BME280;5911;51.036;6.972;2023-06-14T02:46:07;100553.81;;;21.11;46.69
11710;BME280;5911;51.036;6.972;2023-06-14T02:48:37;100553.59;;;21.05;47.81
11710;BME280;5911;51.036;6.972;2023-06-14T02:51:05;100555.88;;;21.08;47.33
11710;BME280;5911;51.036;6.972;2023-06-14T02:53:35;100562.47;;;21.06;47.04
11710;BME280;5911;51.036;6.972;2023-06-14T02:56:03;100559.34;;;21.02;47.32
11710;BME280;5911;51.036;6.972;2023-06-14T02:58:31;100559.34;;;21.02;47.37
11710;BME280;5911;51.036;6.972;2023-06-14T03:00:59;100561.09;;;20.89;47.70
11710;BME280;5911;51.036;6.972;2023-06-14T03:03:30;100561.97;;;20.96;47.85
11710;BME280;5911;51.036;6.972;2023-06-14T03:06:00;100561.84;;;21.04;47.12
11710;BME280;5911;51.036;6.972;2023-06-14T03:08:33;100570.19;;;20.94;47.48
11710;BME280;5911;51.036;6.972;2023-06-14T03:11:10;100573.72;;;20.95;47.63
11710;BME280;5911;51.036;6.972;2023-06-14T03:13:38;100567.53;;;20.94;47.34
11710;BME280;5911;51.036;6.972;2023-06-14T03:16:07;100568.81;;;20.98;47.18
11710;BME280;5911;51.036;6.972;2023-06-14T03:18:38;100574.75;;;20.94;47.10
11710;BME280;5911;51.036;6.972;2023-06-14T03:21:08;100574.69;;;20.87;47.70
11710;BME280;5911;51.036;6.972;2023-06-14T03:23:40;100575.97;;;20.91;47.48
11710;BME280;5911;51.036;6.972;2023-06-14T03:26:09;100584.41;;;20.88;47.58
11710;BME280;5911;51.036;6.972;2023-06-14T03:28:40;100580.06;;;20.87;48.43
11710;BME280;5911;51.036;6.972;2023-06-14T03:31:08;100591.44;;;20.89;47.56
11710;BME280;5911;51.036;6.972;2023-06-14T03:33:36;100587.53;;;20.92;48.22
11710;BME280;5911;51.036;6.972;2023-06-14T03:36:04;100587.47;;;20.85;48.36
11710;BME280;5911;51.036;6.972;2023-06-14T03:38:34;100585.44;;;20.87;48.80
11710;BME280;5911;51.036;6.972;2023-06-14T03:41:03;100588.22;;;20.79;48.50
11710;BME280;5911;51.036;6.972;2023-06-14T03:43:31;100594.13;;;20.89;49.25
11710;BME280;5911;51.036;6.972;2023-06-14T03:46:00;100593.09;;;20.90;49.09
11710;BME280;5911;51.036;6.972;2023-06-14T03:48:29;100600.50;;;20.88;49.24
11710;BME280;5911;51.036;6.972;2023-06-14T03:50:58;100598.66;;;20.89;49.49
11710;BME280;5911;51.036;6.972;2023-06-14T03:53:28;100600.69;;;20.87;49.57
11710;BME280;5911;51.036;6.972;2023-06-14T03:55:58;100599.84;;;20.86;50.29
11710;BME280;5911;51.036;6.972;2023-06-14T03:58:34;100601.91;;;20.84;50.28
11710;BME280;5911;51.036;6.972;2023-06-14T04:01:03;100599.41;;;20.83;50.65
11710;BME280;5911;51.036;6.972;2023-06-14T04:03:31;100605.56;;;20.77;51.62
11710;BME280;5911;51.036;6.972;2023-06-14T04:06:01;100604.25;;;20.73;51.97
11710;BME280;5911;51.036;6.972;2023-06-14T04:08:28;100606.75;;;20.74;52.62
11710;BME280;5911;51.036;6.972;2023-06-14T04:10:59;100610.00;;;20.69;52.59
11710;BME280;5911;51.036;6.972;2023-06-14T04:13:27;100610.09;;;20.76;53.02
11710;BME280;5911;51.036;6.972;2023-06-14T04:15:55;100610.09;;;20.76;52.76
11710;BME280;5911;51.036;6.972;2023-06-14T04:18:28;100616.06;;;20.78;53.53
11710;BME280;5911;51.036;6.972;2023-06-14T04:20:56;100622.25;;;20.79;53.53
11710;BME280;5911;51.036;6.972;2023-06-14T04:23:24;100620.41;;;20.79;54.16
11710;BME280;5911;51.036;6.972;2023-06-14T04:25:55;100619.91;;;20.69;56.01
11710;BME280;5911;51.036;6.972;2023-06-14T04:28:29;100631.97;;;20.80;55.21
11710;BME280;5911;51.036;6.972;2023-06-14T04:31:02;100609.56;;;20.66;56.46
11710;BME280;5911;51.036;6.972;2023-06-14T04:33:31;100636.91;;;20.76;55.88
11710;BME280;5911;51.036;6.972;2023-06-14T04:36:00;100625.53;;;20.74;57.57
11710;BME280;5911;51.036;6.972;2023-06-14T04:38:28;100626.56;;;20.73;57.55
11710;BME280;5911;51.036;6.972;2023-06-14T04:41:01;100633.19;;;20.77;58.12
11710;BME280;5911;51.036;6.972;2023-06-14T04:43:31;100636.91;;;20.76;57.62
11710;BME280;5911;51.036;6.972;2023-06-14T04:46:05;100638.56;;;20.77;57.56
11710;BME280;5911;51.036;6.972;2023-06-14T04:48:37;100648.63;;;20.75;58.02
11710;BME280;5911;51.036;6.972;2023-06-14T04:51:09;100649.28;;;20.77;57.48
11710;BME280;5911;51.036;6.972;2023-06-14T04:53:37;100648.81;;;20.74;57.84
11710;BME280;5911;51.036;6.972;2023-06-14T04:56:05;100661.78;;;20.70;57.53
11710;BME280;5911;51.036;6.972;2023-06-14T04:58:35;100658.34;;;20.76;57.34
11710;BME280;5911;51.036;6.972;2023-06-14T05:01:03;100664.31;;;20.78;57.35
11710;BME280;5911;51.036;6.972;2023-06-14T05:03:31;100670.97;;;20.82;57.40
11710;BME280;5911;51.036;6.972;2023-06-14T05:06:02;100667.00;;;20.78;57.35
11710;BME280;5911;51.036;6.972;2023-06-14T05:08:29;100659.94;;;20.70;56.78
11710;BME280;5911;51.036;6.972;2023-06-14T05:10:57;100668.47;;;20.81;56.71
11710;BME280;5911;51.036;6.972;2023-06-14T05:13:25;100670.78;;;20.84;56.08
11710;BME280;5911;51.036;6.972;2023-06-14T05:15:56;100674.13;;;20.86;55.67
11710;BME280;5911;51.036;6.972;2023-06-14T05:18:24;100681.59;;;20.90;54.88
11710;BME280;5911;51.036;6.972;2023-06-14T05:20:52;100672.91;;;20.88;55.48
11710;BME280;5911;51.036;6.972;2023-06-14T05:23:20;100676.88;;;20.92;54.40
11710;BME280;5911;51.036;6.972;2023-06-14T05:25:48;100676.75;;;21.00;52.64
11710;BME280;5911;51.036;6.972;2023-06-14T05:28:16;100676.53;;;21.02;52.81
11710;BME280;5911;51.036;6.972;2023-06-14T05:30:44;100678.41;;;21.01;52.73
11710;BME280;5911;51.036;6.972;2023-06-14T05:33:13;100673.50;;;21.05;52.16
11710;BME280;5911;51.036;6.972;2023-06-14T05:35:41;100673.53;;;21.12;51.45
11710;BME280;5911;51.036;6.972;2023-06-14T05:38:09;100677.31;;;21.17;52.37
11710;BME280;5911;51.036;6.972;2023-06-14T05:40:37;100674.44;;;21.19;52.21
11710;BME280;5911;51.036;6.972;2023-06-14T05:43:04;100682.31;;;21.20;51.74
11710;BME280;5911;51.036;6.972;2023-06-14T05:45:32;100684.81;;;21.22;50.56
11710;BME280;5911;51.036;6.972;2023-06-14T05:48:00;100681.53;;;21.26;50.79
11710;BME280;5911;51.036;6.972;2023-06-14T05:50:30;100687.34;;;21.30;51.31
11710;BME280;5911;51.036;6.972;2023-06-14T05:52:58;100692.72;;;21.30;51.80
11710;BME280;5911;51.036;6.972;2023-06-14T05:55:26;100687.34;;;21.30;51.23
11710;BME280;5911;51.036;6.972;2023-06-14T05:57:53;100698.72;;;21.32;50.24
11710;BME280;5911;51.036;6.972;2023-06-14T06:00:21;100698.34;;;21.35;50.50
11710;BME280;5911;51.036;6.972;2023-06-14T06:02:49;100704.56;;;21.35;51.15
11710;BME280;5911;51.036;6.972;2023-06-14T06:05:18;100678.81;;;21.20;49.72
11710;BME280;5911;51.036;6.972;2023-06-14T06:07:47;100708.94;;;21.43;50.84
11710;BME280;5911;51.036;6.972;2023-06-14T06:10:15;100705.88;;;21.46;49.76
11710;BME280;5911;51.036;6.972;2023-06-14T06:12:43;100707.16;;;21.50;50.35
11710;BME280;5911;51.036;6.972;2023-06-14T06:15:10;100700.31;;;21.48;50.85
11710;BME280;5911;51.036;6.972;2023-06-14T06:17:40;100706.53;;;21.55;49.59
11710;BME280;5911;51.036;6.972;2023-06-14T06:20:21;100710.06;;;21.55;50.37
11710;BME280;5911;51.036;6.972;2023-06-14T06:22:55;100707.44;;;21.62;50.73
11710;BME280;5911;51.036;6.972;2023-06-14T06:25:23;100713.66;;;21.62;50.24
11710;BME280;5911;51.036;6.972;2023-06-14T06:27:52;100691.28;;;21.55;50.31
11710;BME280;5911;51.036;6.972;2023-06-14T06:30:20;100708.91;;;21.64;50.12
11710;BME280;5911;51.036;6.972;2023-06-14T06:32:48;100713.72;;;21.69;49.09
11710;BME280;5911;51.036;6.972;2023-06-14T06:35:17;100712.06;;;21.74;50.11
11710;BME280;5911;51.036;6.972;2023-06-14T06:37:45;100722.00;;;21.74;48.16
11710;BME280;5911;51.036;6.972;2023-06-14T06:40:14;100710.47;;;21.80;49.77
11710;BME280;5911;51.036;6.972;2023-06-14T06:42:42;100719.19;;;21.82;49.23
11710;BME280;5911;51.036;6.972;2023-06-14T06:45:12;100723.28;;;21.85;49.41
11710;BME280;5911;51.036;6.972;2023-06-14T06:47:40;100732.00;;;21.87;48.89
11710;BME280;5911;51.036;6.972;2023-06-14T06:50:08;100735.31;;;21.89;49.48
11710;BME280;5911;51.036;6.972;2023-06-14T06:52:36;100732.88;;;21.94;49.00
11710;BME280;5911;51.036;6.972;2023-06-14T06:55:04;100735.38;;;21.95;48.21
11710;BME280;5911;51.036;6.972;2023-06-14T06:57:34;100739.16;;;22.01;49.81
11710;BME280;5911;51.036;6.972;2023-06-14T07:00:02;100734.41;;;22.03;50.81
11710;BME280;5911;51.036;6.972;2023-06-14T07:02:32;100739.97;;;22.01;52.09
11710;BME280;5911;51.036;6.972;2023-06-14T07:05:00;100743.50;;;22.02;49.90
11710;BME280;5911;51.036;6.972;2023-06-14T07:07:27;100735.81;;;21.99;49.81
11710;BME280;5911;51.036;6.972;2023-06-14T07:09:55;100740.03;;;22.08;50.72
11710;BME280;5911;51.036;6.972;2023-06-14T07:12:24;100752.44;;;22.09;49.81
11710;BME280;5911;51.036;6.972;2023-06-14T07:14:53;100747.06;;;22.09;50.53
11710;BME280;5911;51.036;6.972;2023-06-14T07:17:21;100737.16;;;22.09;51.72
11710;BME280;5911;51.036;6.972;2023-06-14T07:19:49;100745.88;;;22.18;49.32
11710;BME280;5911;51.036;6.972;2023-06-14T07:22:17;100750.47;;;22.24;47.91
11710;BME280;5911;51.036;6.972;2023-06-14T07:24:45;100743.69;;;22.28;47.02
11710;BME280;5911;51.036;6.972;2023-06-14T07:27:13;100750.91;;;22.28;47.30
11710;BME280;5911;51.036;6.972;2023-06-14T07:29:41;100748.63;;;22.31;46.50
11710;BME280;5911;51.036;6.972;2023-06-14T07:32:10;100749.06;;;22.35;46.38
11710;BME280;5911;51.036;6.972;2023-06-14T07:34:38;100747.22;;;22.35;46.64
11710;BME280;5911;51.036;6.972;2023-06-14T07:37:06;100740.81;;;22.30;46.41
11710;BME280;5911;51.036;6.972;2023-06-14T07:39:34;100746.63;;;22.40;47.27
11710;BME280;5911;51.036;6.972;2023-06-14T07:42:02;100747.66;;;22.39;45.83
11710;BME280;5911;51.036;6.972;2023-06-14T07:44:30;100743.97;;;22.46;43.88
11710;BME280;5911;51.036;6.972;2023-06-14T07:46:58;100747.72;;;22.45;44.13
11710;BME280;5911;51.036;6.972;2023-06-14T07:49:28;100746.66;;;22.46;44.24
11710;BME280;5911;51.036;6.972;2023-06-14T07:51:58;100754.94;;;22.52;43.99
11710;BME280;5911;51.036;6.972;2023-06-14T07:54:36;100744.84;;;22.54;44.71
11710;BME280;5911;51.036;6.972;2023-06-14T07:57:05;100729.28;;;22.49;45.66
11710;BME280;5911;51.036;6.972;2023-06-14T07:59:33;100745.91;;;22.66;46.24
11710;BME280;5911;51.036;6.972;2023-06-14T08:02:01;100742.81;;;22.69;45.13
11710;BME280;5911;51.036;6.972;2023-06-14T08:04:31;100748.63;;;22.72;43.93
11710;BME280;5911;51.036;6.972;2023-06-14T08:06:59;100737.28;;;22.77;45.56
11710;BME280;5911;51.036;6.972;2023-06-14T08:09:27;100739.59;;;22.80;43.71
11710;BME280;5911;51.036;6.972;2023-06-14T08:11:56;100738.94;;;22.78;43.90
11710;BME280;5911;51.036;6.972;2023-06-14T08:14:24;100743.13;;;22.87;45.89
11710;BME280;5911;51.036;6.972;2023-06-14T08:16:51;100740.44;;;22.87;44.76
11710;BME280;5911;51.036;6.972;2023-06-14T08:19:20;100744.59;;;22.90;43.76
11710;BME280;5911;51.036;6.972;2023-06-14T08:21:49;100736.94;;;22.93;43.90
11710;BME280;5911;51.036;6.972;2023-06-14T08:24:17;100743.56;;;22.97;43.83
11710;BME280;5911;51.036;6.972;2023-06-14T08:26:45;100748.75;;;22.99;43.42
11710;BME280;5911;51.036;6.972;2023-06-14T08:29:13;100738.22;;;23.04;43.48
11710;BME280;5911;51.036;6.972;2023-06-14T08:31:41;100741.72;;;22.98;42.58
11710;BME280;5911;51.036;6.972;2023-06-14T08:34:09;100746.66;;;22.94;41.28
11710;BME280;5911;51.036;6.972;2023-06-14T08:36:37;100740.06;;;23.03;43.56
11710;BME280;5911;51.036;6.972;2023-06-14T08:39:06;100744.44;;;23.04;42.83
11710;BME280;5911;51.036;6.972;2023-06-14T08:41:35;100743.78;;;23.09;44.54
11710;BME280;5911;51.036;6.972;2023-06-14T08:44:03;100742.78;;;23.17;45.11
11710;BME280;5911;51.036;6.972;2023-06-14T08:46:33;100737.81;;;23.13;44.15
11710;BME280;5911;51.036;6.972;2023-06-14T08:49:01;100744.84;;;23.14;44.60
11710;BME280;5911;51.036;6.972;2023-06-14T08:51:31;100743.59;;;23.10;42.81
11710;BME280;5911;51.036;6.972;2023-06-14T08:54:00;100745.84;;;23.07;42.06
11710;BME280;5911;51.036;6.972;2023-06-14T08:56:32;100739.25;;;23.09;42.28
11710;BME280;5911;51.036;6.972;2023-06-14T08:59:00;100735.91;;;23.07;42.36
11710;BME280;5911;51.036;6.972;2023-06-14T09:01:32;100740.53;;;23.20;43.25
11710;BME280;5911;51.036;6.972;2023-06-14T09:04:01;100741.34;;;23.14;40.73
11710;BME280;5911;51.036;6.972;2023-06-14T09:06:32;100744.22;;;23.12;40.90
11710;BME280;5911;51.036;6.972;2023-06-14T09:08:59;100726.03;;;23.21;44.71
11710;BME280;5911;51.036;6.972;2023-06-14T09:11:28;100735.53;;;23.24;42.36
11710;BME280;5911;51.036;6.972;2023-06-14T09:14:00;100735.56;;;23.30;43.04
11710;BME280;5911;51.036;6.972;2023-06-14T09:16:29;100730.38;;;23.29;43.03
11710;BME280;5911;51.036;6.972;2023-06-14T09:18:59;100736.78;;;23.28;41.32
11710;BME280;5911;51.036;6.972;2023-06-14T09:21:27;100735.78;;;23.35;45.37
11710;BME280;5911;51.036;6.972;2023-06-14T09:23:59;100733.91;;;23.36;43.62
11710;BME280;5911;51.036;6.972;2023-06-14T09:26:28;100733.69;;;23.31;41.18
11710;BME280;5911;51.036;6.972;2023-06-14T09:28:58;100739.72;;;23.33;41.83
11710;BME280;5911;51.036;6.972;2023-06-14T09:31:26;100735.16;;;23.40;45.59
11710;BME280;5911;51.036;6.972;2023-06-14T09:33:58;100735.16;;;23.40;42.46
11710;BME280;5911;51.036;6.972;2023-06-14T09:36:31;100738.06;;;23.45;44.57
11710;BME280;5911;51.036;6.972;2023-06-14T09:39:00;100735.78;;;23.42;43.45
11710;BME280;5911;51.036;6.972;2023-06-14T09:41:32;100735.97;;;23.40;42.88
11710;BME280;5911;51.036;6.972;2023-06-14T09:44:04;100738.06;;;23.45;43.65
11710;BME280;5911;51.036;6.972;2023-06-14T09:46:37;100744.28;;;23.45;43.08
11710;BME280;5911;51.036;6.972;2023-06-14T09:49:05;100744.31;;;23.52;43.92
11710;BME280;5911;51.036;6.972;2023-06-14T09:51:34;100738.50;;;23.55;45.49
11710;BME280;5911;51.036;6.972;2023-06-14T09:54:05;100742.25;;;23.61;44.46
11710;BME280;5911;51.036;6.972;2023-06-14T09:56:36;100738.50;;;23.62;44.13
11710;BME280;5911;51.036;6.972;2023-06-14T09:59:06;100740.38;;;23.61;45.15
11710;BME280;5911;51.036;6.972;2023-06-14T10:01:42;100742.84;;;23.69;44.40
11710;BME280;5911;51.036;6.972;2023-06-14T10:04:12;100740.78;;;23.58;42.78
11710;BME280;5911;51.036;6.972;2023-06-14T10:06:43;100741.41;;;23.54;42.20
11710;BME280;5911;51.036;6.972;2023-06-14T10:09:12;100749.91;;;23.57;42.68
11710;BME280;5911;51.036;6.972;2023-06-14T10:11:41;100751.97;;;23.68;42.81
11710;BME280;5911;51.036;6.972;2023-06-14T10:14:13;100743.69;;;23.70;42.98
11710;BME280;5911;51.036;6.972;2023-06-14T10:16:45;100735.59;;;23.70;42.54
11710;BME280;5911;51.036;6.972;2023-06-14T10:19:20;100745.97;;;23.79;44.15
11710;BME280;5911;51.036;6.972;2023-06-14T10:21:58;100740.59;;;23.79;44.03
11710;BME280;5911;51.036;6.972;2023-06-14T10:24:31;100747.19;;;23.83;43.00
11710;BME280;5911;51.036;6.972;2023-06-14T10:27:00;100743.66;;;23.90;44.42
11710;BME280;5911;51.036;6.972;2023-06-14T10:29:29;100734.75;;;23.96;44.87
11710;BME280;5911;51.036;6.972;2023-06-14T10:31:59;100722.75;;;23.92;44.66
11710;BME280;5911;51.036;6.972;2023-06-14T10:34:29;100743.00;;;24.14;43.90
11710;BME280;5911;51.036;6.972;2023-06-14T10:37:02;100743.44;;;24.24;43.92
11710;BME280;5911;51.036;6.972;2023-06-14T10:39:30;100732.81;;;24.29;41.96
11710;BME280;5911;51.036;6.972;2023-06-14T10:42:01;100734.28;;;24.38;42.27
11710;BME280;5911;51.036;6.972;2023-06-14T10:44:40;100730.81;;;24.69;41.84
11710;BME280;5911;51.036;6.972;2023-06-14T10:47:25;100728.63;;;24.91;43.16
11710;BME280;5911;51.036;6.972;2023-06-14T10:49:54;100737.28;;;25.38;41.94
11710;BME280;5911;51.036;6.972;2023-06-14T10:52:26;100739.28;;;25.99;39.74
11710;BME280;5911;51.036;6.972;2023-06-14T10:55:06;100737.84;;;26.39;39.71
11710;BME280;5911;51.036;6.972;2023-06-14T10:57:36;100727.56;;;26.78;40.44
11710;BME280;5911;51.036;6.972;2023-06-14T11:00:20;100738.72;;;27.29;38.93
11710;BME280;5911;51.036;6.972;2023-06-14T11:03:15;100742.53;;;27.52;37.90
11710;BME280;5911;51.036;6.972;2023-06-14T11:05:52;100756.41;;;27.85;37.05
11710;BME280;5911;51.036;6.972;2023-06-14T11:08:40;100767.25;;;28.09;36.12
11710;BME280;5911;51.036;6.972;2023-06-14T11:11:13;100761.81;;;28.44;35.48
11710;BME280;5911;51.036;6.972;2023-06-14T11:13:42;100757.31;;;28.49;35.16
11710;BME280;5911;51.036;6.972;2023-06-14T11:16:12;100765.53;;;28.66;33.85
11710;BME280;5911;51.036;6.972;2023-06-14T11:18:42;100763.75;;;28.83;33.83
11710;BME280;5911;51.036;6.972;2023-06-14T11:21:10;100767.81;;;28.97;33.24
11710;BME280;5911;51.036;6.972;2023-06-14T11:23:37;100757.81;;;29.15;32.88
11710;BME280;5911;51.036;6.972;2023-06-14T11:26:05;100763.47;;;29.42;33.18
11710;BME280;5911;51.036;6.972;2023-06-14T11:28:37;100763.00;;;29.16;32.73
11710;BME280;5911;51.036;6.972;2023-06-14T11:31:06;100761.84;;;29.41;33.11
11710;BME280;5911;51.036;6.972;2023-06-14T11:33:35;100761.66;;;29.64;33.54
11710;BME280;5911;51.036;6.972;2023-06-14T11:36:05;100756.41;;;29.74;33.18
11710;BME280;5911;51.036;6.972;2023-06-14T11:38:35;100756.22;;;29.97;33.36
11710;BME280;5911;51.036;6.972;2023-06-14T11:41:04;100760.00;;;29.96;32.09
11710;BME280;5911;51.036;6.972;2023-06-14T11:43:32;100761.41;;;30.16;32.77
11710;BME280;5911;51.036;6.972;2023-06-14T11:46:01;100754.03;;;30.33;33.06
11710;BME280;5911;51.036;6.972;2023-06-14T11:48:37;100744.28;;;30.59;32.19
11710;BME280;5911;51.036;6.972;2023-06-14T11:51:05;100747.13;;;30.47;31.43
11710;BME280;5911;51.036;6.972;2023-06-14T11:53:33;100756.41;;;30.68;31.56
11710;BME280;5911;51.036;6.972;2023-06-14T11:56:02;100762.03;;;30.83;31.69
11710;BME280;5911;51.036;6.972;2023-06-14T11:58:30;100760.88;;;31.01;31.06
11710;BME280;5911;51.036;6.972;2023-06-14T12:00:58;100745.63;;;31.05;30.04
11710;BME280;5911;51.036;6.972;2023-06-14T12:03:26;100756.28;;;31.06;30.75
11710;BME280;5911;51.036;6.972;2023-06-14T12:06:06;100754.47;;;31.12;29.96
11710;BME280;5911;51.036;6.972;2023-06-14T12:08:36;100756.75;;;31.25;29.93
11710;BME280;5911;51.036;6.972;2023-06-14T12:11:07;100760.25;;;31.21;29.18
11710;BME280;5911;51.036;6.972;2023-06-14T12:13:38;100760.25;;;31.21;29.83
11710;BME280;5911;51.036;6.972;2023-06-14T12:16:07;100744.28;;;31.07;28.91
11710;BME280;5911;51.036;6.972;2023-06-14T12:18:35;100757.03;;;31.56;29.86
11710;BME280;5911;51.036;6.972;2023-06-14T12:21:05;100768.78;;;31.88;28.97
11710;BME280;5911;51.036;6.972;2023-06-14T12:23:42;100769.44;;;32.10;27.96
11710;BME280;5911;51.036;6.972;2023-06-14T12:26:13;100769.56;;;32.26;27.39
11710;BME280;5911;51.036;6.972;2023-06-14T12:28:41;100764.72;;;32.38;27.25
11710;BME280;5911;51.036;6.972;2023-06-14T12:31:11;100762.59;;;32.50;27.37
11710;BME280;5911;51.036;6.972;2023-06-14T12:33:39;100771.91;;;32.54;27.44
11710;BME280;5911;51.036;6.972;2023-06-14T12:36:09;100767.53;;;32.53;26.72
11710;BME280;5911;51.036;6.972;2023-06-14T12:38:37;100766.44;;;32.54;27.03
11710;BME280;5911;51.036;6.972;2023-06-14T12:41:05;100773.25;;;32.57;27.34
11710;BME280;5911;51.036;6.972;2023-06-14T12:43:34;100770.31;;;32.68;26.03
11710;BME280;5911;51.036;6.972;2023-06-14T12:46:02;100765.53;;;32.33;26.48
11710;BME280;5911;51.036;6.972;2023-06-14T12:48:29;100778.50;;;32.63;26.28
11710;BME280;5911;51.036;6.972;2023-06-14T12:50:57;100768.88;;;32.56;25.72
11710;BME280;5911;51.036;6.972;2023-06-14T12:53:27;100753.78;;;31.96;26.41
11710;BME280;5911;51.036;6.972;2023-06-14T12:55:54;100754.75;;;31.47;27.46
11710;BME280;5911;51.036;6.972;2023-06-14T12:58:22;100760.72;;;31.71;27.62
11710;BME280;5911;51.036;6.972;2023-06-14T13:00:50;100754.13;;;31.35;28.45
11710;BME280;5911;51.036;6.972;2023-06-14T13:03:18;100750.69;;;31.82;28.41
11710;BME280;5911;51.036;6.972;2023-06-14T13:05:46;100756.16;;;32.24;27.81
11710;BME280;5911;51.036;6.972;2023-06-14T13:08:14;100764.66;;;32.23;28.39
11710;BME280;5911;51.036;6.972;2023-06-14T13:10:43;100760.31;;;31.04;28.63
11710;BME280;5911;51.036;6.972;2023-06-14T13:13:11;100760.34;;;30.55;29.92